createdAt,value
2018-02-16T00:00:50.194Z,101375.00
2018-02-16T00:03:16.164Z,101387.84
2018-02-16T00:05:42.120Z,101384.55
2018-02-16T00:08:08.081Z,101391.77
2018-02-16T00:10:34.038Z,101395.30
2018-02-16T00:13:00.019Z,101398.20
2018-02-16T00:15:25.953Z,101403.30
2018-02-16T00:17:51.917Z,101411.09
2018-02-16T00:20:17.859Z,101409.50
2018-02-16T00:22:43.836Z,101406.92
2018-02-16T00:25:09.845Z,101407.55
2018-02-16T00:27:35.817Z,101406.34
2018-02-16T00:30:01.757Z,101409.70
2018-02-16T00:32:27.705Z,101407.77
2018-02-16T00:34:53.768Z,101408.83
2018-02-16T00:37:19.738Z,101418.64
2018-02-16T00:39:45.676Z,101424.56
2018-02-16T00:42:11.636Z,101429.77
2018-02-16T00:44:37.584Z,101435.41
2018-02-16T00:47:03.542Z,101445.54
2018-02-16T00:49:29.479Z,101456.59
2018-02-16T00:51:55.430Z,101456.38
2018-02-16T00:54:21.376Z,101463.63
2018-02-16T00:56:47.320Z,101464.94
2018-02-16T00:59:13.285Z,101471.87
2018-02-16T01:01:39.337Z,101474.77
2018-02-16T01:04:05.311Z,101484.20
2018-02-16T01:06:31.254Z,101478.63
2018-02-16T01:08:57.209Z,101479.81
2018-02-16T01:11:23.153Z,101475.65
2018-02-16T01:13:49.105Z,101483.31
2018-02-16T01:16:15.076Z,101486.33
2018-02-16T01:18:41.014Z,101491.39
2018-02-16T01:21:06.961Z,101492.94
2018-02-16T01:23:32.905Z,101496.69
2018-02-16T01:25:58.861Z,101497.59
2018-02-16T01:28:24.808Z,101500.43
2018-02-16T01:30:50.887Z,101498.08
2018-02-16T01:33:16.845Z,101503.77
2018-02-16T01:35:42.786Z,101501.41
2018-02-16T01:38:08.732Z,101501.13
2018-02-16T01:40:34.673Z,101502.86
2018-02-16T01:43:00.617Z,101512.01
2018-02-16T01:45:26.565Z,101512.21
2018-02-16T01:47:52.504Z,101513.88
2018-02-16T01:50:18.462Z,101516.27
2018-02-16T01:52:44.396Z,101515.61
2018-02-16T01:55:10.337Z,101516.55
2018-02-16T01:57:36.314Z,101525.94
2018-02-16T02:00:02.285Z,101528.16
2018-02-16T02:02:28.217Z,101534.39
2018-02-16T02:04:54.176Z,101532.91
2018-02-16T02:07:20.125Z,101533.66
2018-02-16T02:09:46.085Z,101541.73
2018-02-16T02:12:12.037Z,101544.34
2018-02-16T02:14:38.020Z,101545.65
2018-02-16T02:17:03.978Z,101547.00
2018-02-16T02:19:29.952Z,101547.07
2018-02-16T02:21:55.904Z,101547.80
2018-02-16T02:24:21.865Z,101549.39
2018-02-16T02:26:47.826Z,101558.95
2018-02-16T02:29:13.792Z,101559.58
2018-02-16T02:31:39.745Z,101553.83
2018-02-16T02:34:05.691Z,101557.11
2018-02-16T02:36:31.650Z,101562.13
2018-02-16T02:38:57.597Z,101562.41
2018-02-16T02:41:23.585Z,101561.83
2018-02-16T02:43:49.551Z,101566.81
2018-02-16T02:46:15.489Z,101565.56
2018-02-16T02:48:41.454Z,101575.47
2018-02-16T02:51:07.399Z,101575.78
2018-02-16T02:53:33.370Z,101575.57
2018-02-16T02:55:59.316Z,101584.09
2018-02-16T02:58:25.269Z,101579.07
2018-02-16T03:00:51.221Z,101578.69
2018-02-16T03:03:17.278Z,101581.08
2018-02-16T03:05:43.221Z,101584.78
2018-02-16T03:08:09.161Z,101586.66
2018-02-16T03:10:35.134Z,101588.39
2018-02-16T03:13:01.086Z,101598.50
2018-02-16T03:15:27.025Z,101604.45
2018-02-16T03:17:52.981Z,101607.16
2018-02-16T03:20:18.922Z,101609.97
2018-02-16T03:22:44.916Z,101615.68
2018-02-16T03:25:10.865Z,101618.48
2018-02-16T03:27:36.828Z,101618.27
2018-02-16T03:30:02.766Z,101617.02
2018-02-16T03:32:28.700Z,101616.95
2018-02-16T03:34:54.642Z,101620.63
2018-02-16T03:37:20.671Z,101614.81
2018-02-16T03:39:46.617Z,101613.74
2018-02-16T03:42:12.565Z,101610.49
2018-02-16T03:44:38.531Z,101620.22
2018-02-16T03:47:04.474Z,101627.93
2018-02-16T03:49:30.421Z,101632.03
2018-02-16T03:51:56.361Z,101629.66
2018-02-16T03:54:22.297Z,101636.42
2018-02-16T03:56:48.243Z,101633.89
2018-02-16T03:59:14.182Z,101644.30
2018-02-16T04:01:40.127Z,101647.73
2018-02-16T04:04:06.086Z,101648.45
2018-02-16T04:06:32.052Z,101654.28
2018-02-16T04:08:57.997Z,101658.76
2018-02-16T04:11:23.950Z,101656.46
2018-02-16T04:13:49.889Z,101657.05
2018-02-16T04:16:15.831Z,101667.46
2018-02-16T04:18:41.793Z,101669.68
2018-02-16T04:21:07.760Z,101671.48
2018-02-16T04:23:33.711Z,101670.65
2018-02-16T04:25:59.669Z,101668.67
2018-02-16T04:28:25.649Z,101668.95
2018-02-16T04:30:51.597Z,101670.47
2018-02-16T04:33:17.569Z,101677.48
2018-02-16T04:35:43.547Z,101685.25
2018-02-16T04:38:09.496Z,101684.20
2018-02-16T04:40:35.467Z,101687.16
2018-02-16T04:43:01.403Z,101685.11
2018-02-16T04:45:27.376Z,101686.16
2018-02-16T04:47:53.332Z,101688.99
2018-02-16T04:50:19.273Z,101699.95
2018-02-16T04:52:45.217Z,101700.51
2018-02-16T04:55:11.256Z,101708.77
2018-02-16T04:57:37.229Z,101716.11
2018-02-16T05:00:03.182Z,101722.33
2018-02-16T05:02:29.166Z,101727.53
2018-02-16T05:04:55.109Z,101731.42
2018-02-16T05:07:21.045Z,101732.25
2018-02-16T05:09:47.005Z,101743.97
2018-02-16T05:12:12.948Z,101739.70
2018-02-16T05:14:38.904Z,101745.47
2018-02-16T05:17:04.853Z,101748.20
2018-02-16T05:19:30.816Z,101749.34
2018-02-16T05:21:56.793Z,101747.19
2018-02-16T05:24:22.760Z,101750.69
2018-02-16T05:26:48.720Z,101754.69
2018-02-16T05:29:14.668Z,101754.71
2018-02-16T05:31:40.627Z,101750.09
2018-02-16T05:34:06.569Z,101763.20
2018-02-16T05:36:32.542Z,101754.44
2018-02-16T05:38:58.492Z,101758.08
2018-02-16T05:41:24.438Z,101765.81
2018-02-16T05:43:50.386Z,101765.34
2018-02-16T05:46:16.324Z,101768.88
2018-02-16T05:48:42.292Z,101771.66
2018-02-16T05:51:08.234Z,101781.17
2018-02-16T05:53:34.198Z,101779.75
2018-02-16T05:56:00.176Z,101777.08
2018-02-16T05:58:26.123Z,101778.64
2018-02-16T06:00:52.065Z,101784.87
2018-02-16T06:03:18.132Z,101794.80
2018-02-16T06:05:44.085Z,101795.28
2018-02-16T06:08:10.030Z,101794.58
2018-02-16T06:10:36.022Z,101791.84
2018-02-16T06:13:01.960Z,101799.44
2018-02-16T06:15:27.913Z,101802.87
2018-02-16T06:17:53.956Z,101799.48
2018-02-16T06:20:19.902Z,101798.02
2018-02-16T06:22:45.842Z,101796.80
2018-02-16T06:25:11.786Z,101807.85
2018-02-16T06:27:37.724Z,101805.67
2018-02-16T06:30:03.672Z,101817.23
2018-02-16T06:32:29.629Z,101827.87
2018-02-16T06:34:55.586Z,101824.47
2018-02-16T06:37:21.555Z,101830.75
2018-02-16T06:39:47.540Z,101817.80
2018-02-16T06:42:13.486Z,101826.80
2018-02-16T06:44:39.454Z,101827.84
2018-02-16T06:47:05.431Z,101832.31
2018-02-16T06:49:31.387Z,101842.11
2018-02-16T06:51:57.345Z,101841.50
2018-02-16T06:54:23.290Z,101843.67
2018-02-16T06:56:49.245Z,101845.95
2018-02-16T06:59:15.197Z,101849.85
2018-02-16T07:01:41.170Z,101849.28
2018-02-16T07:04:07.140Z,101859.75
2018-02-16T07:06:33.080Z,101855.61
2018-02-16T07:08:59.136Z,101865.02
2018-02-16T07:11:25.076Z,101868.48
2018-02-16T07:13:51.038Z,101868.88
2018-02-16T07:16:16.998Z,101868.14
2018-02-16T07:18:42.939Z,101864.10
2018-02-16T07:21:08.885Z,101864.69
2018-02-16T07:23:34.941Z,101870.66
2018-02-16T07:26:00.899Z,101885.69
2018-02-16T07:28:26.858Z,101880.98
2018-02-16T07:30:52.801Z,101880.91
2018-02-16T07:33:18.753Z,101885.94
2018-02-16T07:35:44.695Z,101893.23
2018-02-16T07:38:10.673Z,101898.02
2018-02-16T07:40:36.630Z,101900.92
2018-02-16T07:43:02.577Z,101897.97
2018-02-16T07:45:28.513Z,101912.47
2018-02-16T07:47:54.481Z,101918.13
2018-02-16T07:50:20.424Z,101917.33
2018-02-16T07:52:46.362Z,101919.87
2018-02-16T07:55:12.314Z,101925.28
2018-02-16T07:57:38.261Z,101930.44
2018-02-16T08:00:04.230Z,101929.91
2018-02-16T08:02:30.169Z,101935.45
2018-02-16T08:04:56.197Z,101934.61
2018-02-16T08:07:22.156Z,101940.05
2018-02-16T08:09:48.131Z,101946.97
2018-02-16T08:12:14.138Z,101946.89
2018-02-16T08:14:40.077Z,101948.14
2018-02-16T08:17:06.021Z,101949.46
2018-02-16T08:19:32.022Z,101953.66
2018-02-16T08:21:57.962Z,101958.14
2018-02-16T08:24:23.905Z,101964.47
2018-02-16T08:26:49.881Z,101970.74
2018-02-16T08:29:15.830Z,101971.05
2018-02-16T08:31:41.771Z,101975.97
2018-02-16T08:34:07.721Z,101982.98
2018-02-16T08:36:33.664Z,101982.92
2018-02-16T08:38:59.605Z,101992.13
2018-02-16T08:41:25.546Z,101993.78
2018-02-16T08:43:51.516Z,102002.52
2018-02-16T08:46:17.501Z,102003.69
2018-02-16T08:48:43.433Z,102006.00
2018-02-16T08:51:09.388Z,102004.17
2018-02-16T08:53:35.346Z,102007.73
2018-02-16T08:56:01.296Z,102012.10
2018-02-16T08:58:27.253Z,102021.53
2018-02-16T09:00:53.228Z,102020.75
2018-02-16T09:03:19.181Z,102016.16
2018-02-16T09:05:45.157Z,102019.64
2018-02-16T09:08:11.093Z,102029.39
2018-02-16T09:10:37.049Z,102035.78
2018-02-16T09:13:02.997Z,102028.97
2018-02-16T09:15:29.009Z,102037.34
2018-02-16T09:17:54.986Z,102044.75
2018-02-16T09:20:20.944Z,102039.80
2018-02-16T09:22:46.897Z,102041.95
2018-02-16T09:25:12.842Z,102046.81
2018-02-16T09:27:38.813Z,102045.69
2018-02-16T09:30:04.762Z,102042.02
2018-02-16T09:32:30.706Z,102045.41
2018-02-16T09:34:56.657Z,102046.27
2018-02-16T09:37:22.589Z,102050.17
2018-02-16T09:39:48.569Z,102055.03
2018-02-16T09:42:14.510Z,102060.89
2018-02-16T09:44:40.479Z,102059.66
2018-02-16T09:47:06.429Z,102065.75
2018-02-16T09:49:32.390Z,102064.20
2018-02-16T09:51:58.325Z,102066.72
2018-02-16T09:54:24.271Z,102066.23
2018-02-16T09:56:50.246Z,102066.49
2018-02-16T09:59:16.186Z,102069.09
2018-02-16T10:01:42.150Z,102071.92
2018-02-16T10:04:08.112Z,102077.91
2018-02-16T10:06:34.054Z,102081.41
2018-02-16T10:09:00.008Z,102078.68
2018-02-16T10:11:25.981Z,102073.83
2018-02-16T10:13:51.926Z,102079.84
2018-02-16T10:16:17.885Z,102080.32
2018-02-16T10:18:43.834Z,102082.86
2018-02-16T10:21:09.788Z,102087.75
2018-02-16T10:23:35.743Z,102101.00
2018-02-16T10:26:01.706Z,102094.02
2018-02-16T10:28:27.661Z,102099.33
2018-02-16T10:30:53.625Z,102100.90
2018-02-16T10:33:19.570Z,102103.34
2018-02-16T10:35:45.517Z,102105.24
2018-02-16T10:38:11.457Z,102097.05
2018-02-16T10:40:37.434Z,102103.44
2018-02-16T10:43:03.395Z,102107.63
2018-02-16T10:45:29.341Z,102115.70
2018-02-16T10:47:55.278Z,102111.70
2018-02-16T10:50:21.224Z,102111.00
2018-02-16T10:52:47.195Z,102110.23
2018-02-16T10:55:13.137Z,102105.73
2018-02-16T10:57:39.086Z,102110.00
2018-02-16T11:00:05.033Z,102109.91
2018-02-16T11:02:30.974Z,102114.28
2018-02-16T11:04:56.931Z,102115.80
2018-02-16T11:07:22.881Z,102109.27
2018-02-16T11:09:48.861Z,102108.75
2018-02-16T11:12:14.819Z,102110.68
2018-02-16T11:14:40.838Z,102121.39
2018-02-16T11:17:06.745Z,102110.94
2018-02-16T11:19:32.696Z,102116.66
2018-02-16T11:21:58.684Z,102119.65
2018-02-16T11:24:24.662Z,102120.33
2018-02-16T11:26:50.618Z,102118.75
2018-02-16T11:29:16.572Z,102119.46
2018-02-16T11:31:42.538Z,102127.30
2018-02-16T11:34:08.481Z,102129.27
2018-02-16T11:36:34.430Z,102119.81
2018-02-16T11:39:00.382Z,102122.77
2018-02-16T11:41:26.389Z,102124.57
2018-02-16T11:43:52.364Z,102126.15
2018-02-16T11:46:18.317Z,102125.70
2018-02-16T11:48:44.295Z,102121.87
2018-02-16T11:51:10.374Z,102117.08
2018-02-16T11:53:36.310Z,102126.63
2018-02-16T11:56:02.249Z,102123.35
2018-02-16T11:58:28.193Z,102129.63
2018-02-16T12:00:54.159Z,102130.27
2018-02-16T12:03:20.141Z,102128.05
2018-02-16T12:05:46.091Z,102130.16
2018-02-16T12:08:12.042Z,102129.42
2018-02-16T12:10:38.023Z,102129.20
2018-02-16T12:13:03.968Z,102131.06
2018-02-16T12:15:29.964Z,102125.37
2018-02-16T12:17:55.934Z,102125.83
2018-02-16T12:20:21.882Z,102127.66
2018-02-16T12:22:47.844Z,102127.24
2018-02-16T12:25:13.785Z,102125.41
2018-02-16T12:27:39.818Z,102123.16
2018-02-16T12:30:05.798Z,102121.64
2018-02-16T12:32:31.758Z,102124.09
2018-02-16T12:34:57.742Z,102126.77
2018-02-16T12:37:23.684Z,102124.99
2018-02-16T12:39:49.649Z,102129.30
2018-02-16T12:42:15.627Z,102133.67
2018-02-16T12:44:41.573Z,102130.36
2018-02-16T12:47:07.536Z,102134.22
2018-02-16T12:49:33.482Z,102126.89
2018-02-16T12:51:59.433Z,102133.41
2018-02-16T12:54:25.380Z,102128.84
2018-02-16T12:56:51.323Z,102126.69
2018-02-16T12:59:17.269Z,102125.11
2018-02-16T13:01:43.234Z,102119.49
2018-02-16T13:04:09.206Z,102123.52
2018-02-16T13:06:35.145Z,102120.42
2018-02-16T13:09:01.121Z,102110.23
2018-02-16T13:11:27.100Z,102110.16
2018-02-16T13:13:53.045Z,102116.11
2018-02-16T13:16:19.007Z,102106.41
2018-02-16T13:18:44.957Z,102111.39
2018-02-16T13:21:10.928Z,102110.42
2018-02-16T13:23:36.861Z,102104.70
2018-02-16T13:26:02.862Z,102109.06
2018-02-16T13:28:28.781Z,102106.34
2018-02-16T13:30:54.729Z,102105.66
2018-02-16T13:33:20.707Z,102103.44
2018-02-16T13:35:46.653Z,102102.70
2018-02-16T13:38:12.717Z,102099.58
2018-02-16T13:40:38.690Z,102105.27
2018-02-16T13:43:04.643Z,102094.41
2018-02-16T13:45:30.585Z,102093.09
2018-02-16T13:47:56.537Z,102095.41
2018-02-16T13:50:22.497Z,102091.22
2018-02-16T13:52:48.457Z,102088.97
2018-02-16T13:55:14.395Z,102095.88
2018-02-16T13:57:40.412Z,102096.94
2018-02-16T14:00:06.384Z,102095.46
2018-02-16T14:02:32.326Z,102098.73
2018-02-16T14:04:58.509Z,102097.77
2018-02-16T14:07:24.514Z,102099.98
2018-02-16T14:09:50.473Z,102098.59
2018-02-16T14:12:16.426Z,102097.68
2018-02-16T14:14:42.450Z,102094.24
2018-02-16T14:17:08.405Z,102102.41
2018-02-16T14:19:34.350Z,102095.36
2018-02-16T14:22:00.365Z,102093.63
2018-02-16T14:24:26.321Z,102091.25
2018-02-16T14:26:52.277Z,102087.42
2018-02-16T14:29:18.226Z,102085.88
2018-02-16T14:31:44.197Z,102095.27
2018-02-16T14:34:10.141Z,102093.47
2018-02-16T14:36:36.142Z,102083.53
2018-02-16T14:39:02.101Z,102091.52
2018-02-16T14:41:28.051Z,102088.72
2018-02-16T14:43:54.077Z,102086.98
2018-02-16T14:46:20.195Z,102087.87
2018-02-16T14:48:46.261Z,102083.95
2018-02-16T14:51:12.744Z,102086.98
2018-02-16T14:53:38.749Z,102090.80
2018-02-16T14:56:04.773Z,102084.05
2018-02-16T14:58:30.698Z,102084.70
2018-02-16T15:00:56.671Z,102078.84
2018-02-16T15:03:22.630Z,102085.85
2018-02-16T15:05:48.601Z,102085.69
2018-02-16T15:08:14.554Z,102081.13
2018-02-16T15:10:40.485Z,102076.53
2018-02-16T15:13:06.437Z,102077.33
2018-02-16T15:15:32.420Z,102081.03
2018-02-16T15:17:58.379Z,102081.96
2018-02-16T15:20:24.332Z,102072.98
2018-02-16T15:22:50.267Z,102079.87
2018-02-16T15:25:16.272Z,102075.20
2018-02-16T15:27:42.191Z,102076.97
2018-02-16T15:30:08.150Z,102080.29
2018-02-16T15:32:34.242Z,102071.06
2018-02-16T15:35:00.196Z,102075.17
2018-02-16T15:37:26.147Z,102081.45
2018-02-16T15:39:52.162Z,102083.86
2018-02-16T15:42:18.117Z,102085.20
2018-02-16T15:44:44.076Z,102087.27
2018-02-16T15:47:10.055Z,102088.06
2018-02-16T15:49:36.025Z,102086.59
2018-02-16T15:52:02.046Z,102084.98
2018-02-16T15:54:28.005Z,102091.41
2018-02-16T15:56:53.957Z,102095.89
2018-02-16T15:59:19.905Z,102097.01
2018-02-16T16:01:45.866Z,102092.38
2018-02-16T16:04:11.817Z,102094.11
2018-02-16T16:06:37.761Z,102096.66
2018-02-16T16:09:03.736Z,102091.95
2018-02-16T16:11:29.685Z,102096.11
2018-02-16T16:13:55.658Z,102092.85
2018-02-16T16:16:21.626Z,102090.51
2018-02-16T16:18:47.593Z,102088.67
2018-02-16T16:21:13.541Z,102098.90
2018-02-16T16:23:39.495Z,102095.95
2018-02-16T16:26:05.461Z,102098.62
2018-02-16T16:28:31.407Z,102100.84
2018-02-16T16:30:57.358Z,102105.17
2018-02-16T16:33:23.308Z,102105.11
2018-02-16T16:35:49.264Z,102114.30
2018-02-16T16:38:15.273Z,102127.52
2018-02-16T16:40:41.585Z,102126.69
2018-02-16T16:43:07.572Z,102127.48
2018-02-16T16:45:33.534Z,102124.88
2018-02-16T16:47:59.534Z,102126.91
2018-02-16T16:50:25.508Z,102135.31
2018-02-16T16:52:51.547Z,102138.91
2018-02-16T16:55:17.487Z,102147.31
2018-02-16T16:57:43.443Z,102143.67
2018-02-16T17:00:09.504Z,102144.94
2018-02-16T17:02:35.446Z,102150.47
2018-02-16T17:05:01.428Z,102149.43
2018-02-16T17:07:27.370Z,102145.32
2018-02-16T17:09:53.328Z,102145.37
2018-02-16T17:12:19.282Z,102143.25
2018-02-16T17:14:45.281Z,102146.84
2018-02-16T17:17:11.241Z,102151.55
2018-02-16T17:19:37.189Z,102147.28
2018-02-16T17:22:03.162Z,102143.41
2018-02-16T17:24:29.126Z,102147.84
2018-02-16T17:26:55.106Z,102137.59
2018-02-16T17:29:21.050Z,102144.64
2018-02-16T17:31:47.005Z,102140.10
2018-02-16T17:34:12.970Z,102138.63
2018-02-16T17:36:38.961Z,102134.98
2018-02-16T17:39:04.918Z,102131.80
2018-02-16T17:41:30.982Z,102130.29
2018-02-16T17:43:56.949Z,102132.09
2018-02-16T17:46:22.889Z,102131.72
2018-02-16T17:48:48.852Z,102127.84
2018-02-16T17:51:14.805Z,102123.45
2018-02-16T17:53:40.752Z,102122.05
2018-02-16T17:56:06.737Z,102115.09
2018-02-16T17:58:32.722Z,102112.00
2018-02-16T18:00:58.694Z,102116.95
2018-02-16T18:03:24.658Z,102124.02
2018-02-16T18:05:50.651Z,102115.73
2018-02-16T18:08:16.710Z,102104.28
2018-02-16T18:10:42.710Z,102108.13
2018-02-16T18:13:08.656Z,102099.30
2018-02-16T18:15:34.610Z,102101.87
2018-02-16T18:18:00.549Z,102106.40
2018-02-16T18:20:26.498Z,102114.46
2018-02-16T18:22:52.444Z,102118.52
2018-02-16T18:25:18.470Z,102112.47
2018-02-16T18:27:44.505Z,102117.27
2018-02-16T18:30:10.471Z,102112.47
2018-02-16T18:32:36.410Z,102113.93
2018-02-16T18:35:02.401Z,102106.98
2018-02-16T18:37:28.349Z,102111.40
2018-02-16T18:39:54.318Z,102122.42
2018-02-16T18:42:20.265Z,102126.70
2018-02-16T18:44:46.290Z,102122.58
2018-02-16T18:47:12.274Z,102120.33
2018-02-16T18:49:38.218Z,102113.88
2018-02-16T18:52:04.177Z,102109.31
2018-02-16T18:54:30.117Z,102103.08
2018-02-16T18:56:56.102Z,102101.98
2018-02-16T18:59:22.078Z,102097.33
2018-02-16T19:01:48.017Z,102093.95
2018-02-16T19:04:13.991Z,102097.34
2018-02-16T19:06:39.965Z,102106.12
2018-02-16T19:09:05.926Z,102104.97
2018-02-16T19:11:31.904Z,102115.22
2018-02-16T19:13:57.922Z,102117.98
2018-02-16T19:16:23.954Z,102120.95
2018-02-16T19:18:49.902Z,102116.47
2018-02-16T19:21:15.924Z,102119.20
2018-02-16T19:23:41.879Z,102125.76
2018-02-16T19:26:07.837Z,102125.60
2018-02-16T19:28:33.823Z,102117.62
2018-02-16T19:31:00.963Z,102104.83
2018-02-16T19:33:26.987Z,102104.62
2018-02-16T19:35:52.956Z,102097.38
2018-02-16T19:38:19.159Z,102095.80
2018-02-16T19:40:45.412Z,102099.66
2018-02-16T19:43:11.411Z,102099.92
2018-02-16T19:45:37.596Z,102106.19
2018-02-16T19:48:03.581Z,102103.43
2018-02-16T19:50:29.547Z,102102.34
2018-02-16T19:52:55.803Z,102105.78
2018-02-16T19:55:22.079Z,102108.35
2018-02-16T19:57:48.062Z,102127.27
2018-02-16T20:00:14.381Z,102140.08
2018-02-16T20:02:40.438Z,102147.95
2018-02-16T20:05:06.404Z,102146.80
2018-02-16T20:07:32.643Z,102130.50
2018-02-16T20:09:59.012Z,102128.73
2018-02-16T20:12:25.036Z,102130.61
2018-02-16T20:14:51.236Z,102123.69
2018-02-16T20:17:17.472Z,102116.84
2018-02-16T20:19:43.703Z,102106.41
2018-02-16T20:22:09.972Z,102109.62
2018-02-16T20:24:36.040Z,102102.08
2018-02-16T20:27:01.992Z,102101.33
2018-02-16T20:29:27.936Z,102094.27
2018-02-16T20:31:54.151Z,102088.48
2018-02-16T20:34:20.149Z,102093.20
2018-02-16T20:36:46.321Z,102100.16
2018-02-16T20:39:12.295Z,102103.92
2018-02-16T20:41:38.515Z,102108.13
2018-02-16T20:44:04.603Z,102107.55
2018-02-16T20:46:30.581Z,102115.27
2018-02-16T20:48:56.738Z,102111.77
2018-02-16T20:51:22.776Z,102108.92
2018-02-16T20:53:48.983Z,102110.88
2018-02-16T20:56:14.959Z,102118.09
2018-02-16T20:58:40.903Z,102123.33
2018-02-16T21:01:06.855Z,102127.91
2018-02-16T21:03:32.856Z,102121.69
2018-02-16T21:05:58.822Z,102125.17
2018-02-16T21:08:24.777Z,102120.80
2018-02-16T21:10:50.748Z,102127.12
2018-02-16T21:13:16.716Z,102124.75
2018-02-16T21:15:42.687Z,102126.91
2018-02-16T21:18:08.623Z,102130.56
2018-02-16T21:20:34.596Z,102127.86
2018-02-16T21:23:00.535Z,102133.04
2018-02-16T21:25:26.495Z,102124.92
2018-02-16T21:27:52.442Z,102138.91
2018-02-16T21:30:18.403Z,102132.03
2018-02-16T21:32:44.348Z,102142.31
2018-02-16T21:35:10.309Z,102134.28
2018-02-16T21:37:36.259Z,102133.38
2018-02-16T21:40:02.238Z,102130.33
2018-02-16T21:42:28.206Z,102127.97
2018-02-16T21:44:54.167Z,102120.25
2018-02-16T21:47:20.119Z,102115.27
2018-02-16T21:49:46.087Z,102110.92
2018-02-16T21:52:12.055Z,102103.58
2018-02-16T21:54:37.994Z,102100.64
2018-02-16T21:57:03.979Z,102094.28
2018-02-16T21:59:29.913Z,102097.02
2018-02-16T22:01:55.862Z,102089.39
2018-02-16T22:04:21.869Z,102088.11
2018-02-16T22:06:47.823Z,102077.05
2018-02-16T22:09:13.773Z,102083.05
2018-02-16T22:11:39.749Z,102090.28
2018-02-16T22:14:05.705Z,102093.27
2018-02-16T22:16:31.667Z,102087.07
2018-02-16T22:18:57.662Z,102084.95
2018-02-16T22:21:23.603Z,102078.31
2018-02-16T22:23:49.547Z,102078.06
2018-02-16T22:26:15.497Z,102074.02
2018-02-16T22:28:41.472Z,102069.52
2018-02-16T22:31:07.434Z,102066.08
2018-02-16T22:33:33.552Z,102072.69
2018-02-16T22:35:59.462Z,102069.61
2018-02-16T22:38:25.433Z,102070.67
2018-02-16T22:40:51.411Z,102069.16
2018-02-16T22:43:17.394Z,102069.16
2018-02-16T22:45:43.373Z,102071.99
2018-02-16T22:48:09.311Z,102067.30
2018-02-16T22:50:35.277Z,102070.83
2018-02-16T22:53:01.226Z,102069.63
2018-02-16T22:55:27.190Z,102063.30
2018-02-16T22:57:53.150Z,102062.73
2018-02-16T23:00:19.144Z,102071.41
2018-02-16T23:02:45.085Z,102068.67
2018-02-16T23:05:11.037Z,102074.02
2018-02-16T23:07:37.002Z,102077.95
2018-02-16T23:10:02.958Z,102069.45
2018-02-16T23:12:28.940Z,102066.68
2018-02-16T23:14:54.896Z,102072.78
2018-02-16T23:17:20.851Z,102070.30
2018-02-16T23:19:46.806Z,102063.68
2018-02-16T23:22:12.743Z,102058.78
2018-02-16T23:24:38.710Z,102062.08
2018-02-16T23:27:04.666Z,102058.70
2018-02-16T23:29:30.630Z,102063.23
2018-02-16T23:31:56.577Z,102067.25
2018-02-16T23:34:22.688Z,102067.78
2018-02-16T23:36:48.659Z,102068.92
2018-02-16T23:39:14.710Z,102067.15
2018-02-16T23:41:40.670Z,102067.83
2018-02-16T23:44:06.571Z,102066.11
2018-02-16T23:46:32.526Z,102060.72
2018-02-16T23:48:58.478Z,102053.17
2018-02-16T23:51:24.423Z,102050.18
2018-02-16T23:53:50.395Z,102050.72
2018-02-16T23:56:16.335Z,102050.04
2018-02-16T23:58:42.295Z,102051.02
